createdAt,value
2023-04-09T00:01:13.629Z,100946.00
2023-04-09T00:04:16.777Z,100948.91
2023-04-09T00:07:19.549Z,100957.84
2023-04-09T00:10:22.970Z,100956.78
2023-04-09T00:13:38.697Z,100955.56
2023-04-09T00:16:43.006Z,100953.78
2023-04-09T00:19:45.798Z,100951.66
2023-04-09T00:22:49.829Z,100949.75
2023-04-09T00:25:52.253Z,100955.03
2023-04-09T00:28:56.313Z,100955.84
2023-04-09T00:32:00.340Z,100949.16
2023-04-09T00:35:03.610Z,100954.25
2023-04-09T00:38:06.290Z,100952.53
2023-04-09T00:41:09.382Z,100952.53
2023-04-09T00:44:11.929Z,100947.59
2023-04-09T00:47:15.537Z,100951.91
2023-04-09T00:50:18.261Z,100946.59
2023-04-09T00:53:21.822Z,100955.56
2023-04-09T00:56:25.749Z,100948.00
2023-04-09T00:59:28.957Z,100953.47
2023-04-09T01:02:31.739Z,100946.72
2023-04-09T01:05:47.854Z,100948.00
2023-04-09T01:09:10.481Z,100945.00
2023-04-09T01:12:23.157Z,100948.97
2023-04-09T01:15:29.383Z,100947.16
2023-04-09T01:18:43.110Z,100945.19
2023-04-09T01:21:46.669Z,100941.31
2023-04-09T01:25:04.819Z,100939.19
2023-04-09T01:28:27.896Z,100942.69
2023-04-09T01:31:36.318Z,100939.28
2023-04-09T01:34:40.820Z,100942.69
2023-04-09T01:37:44.379Z,100948.53
2023-04-09T01:40:48.769Z,100945.06
2023-04-09T01:43:53.560Z,100950.81
2023-04-09T01:46:58.221Z,100952.63
2023-04-09T01:50:02.607Z,100943.78
2023-04-09T01:53:05.844Z,100943.88
2023-04-09T01:56:09.773Z,100948.44
2023-04-09T01:59:12.769Z,100943.16
2023-04-09T02:02:21.241Z,100939.59
2023-04-09T02:05:29.187Z,100953.25
2023-04-09T02:08:34.819Z,100943.47
2023-04-09T02:11:41.778Z,100951.94
2023-04-09T02:14:47.210Z,100942.37
2023-04-09T02:17:50.528Z,100950.81
2023-04-09T02:20:54.674Z,100947.34
2023-04-09T02:23:57.575Z,100943.56
2023-04-09T02:27:00.584Z,100937.31
2023-04-09T02:30:04.198Z,100940.09
2023-04-09T02:33:07.322Z,100945.97
2023-04-09T02:36:13.545Z,100943.56
2023-04-09T02:39:16.504Z,100942.09
2023-04-09T02:42:20.481Z,100940.38
2023-04-09T02:45:23.482Z,100934.31
2023-04-09T02:48:26.513Z,100936.59
2023-04-09T02:51:29.621Z,100940.00
2023-04-09T02:54:32.446Z,100933.03
2023-04-09T02:57:36.405Z,100934.50
2023-04-09T03:00:39.349Z,100935.28
2023-04-09T03:03:43.138Z,100934.19
2023-04-09T03:06:45.935Z,100947.53
2023-04-09T03:09:48.850Z,100938.78
2023-04-09T03:12:52.477Z,100946.44
2023-04-09T03:15:55.734Z,100941.66
2023-04-09T03:18:58.601Z,100947.53
2023-04-09T03:22:01.909Z,100941.19
2023-04-09T03:25:06.519Z,100937.09
2023-04-09T03:28:09.926Z,100940.31
2023-04-09T03:31:14.296Z,100935.03
2023-04-09T03:34:17.732Z,100940.00
2023-04-09T03:37:22.940Z,100941.75
2023-04-09T03:40:26.062Z,100941.66
2023-04-09T03:43:28.944Z,100940.47
2023-04-09T03:46:31.928Z,100945.37
2023-04-09T03:49:36.481Z,100946.84
2023-04-09T03:52:40.089Z,100947.66
2023-04-09T03:55:43.756Z,100946.06
2023-04-09T03:58:50.702Z,100945.66
2023-04-09T04:01:54.150Z,100948.06
2023-04-09T04:04:57.461Z,100949.06
2023-04-09T04:08:01.042Z,100954.91
2023-04-09T04:11:05.378Z,100951.44
2023-04-09T04:14:08.849Z,100955.75
2023-04-09T04:17:12.966Z,100954.12
2023-04-09T04:20:15.725Z,100953.31
2023-04-09T04:23:23.049Z,100949.16
2023-04-09T04:26:26.177Z,100952.53
2023-04-09T04:29:29.965Z,100959.41
2023-04-09T04:32:32.744Z,100960.91
2023-04-09T04:35:39.332Z,100965.72
2023-04-09T04:38:42.868Z,100963.28
2023-04-09T04:41:48.163Z,100968.78
2023-04-09T04:44:51.030Z,100967.97
2023-04-09T04:47:57.374Z,100972.00
2023-04-09T04:51:02.061Z,100972.31
2023-04-09T04:54:06.020Z,100977.97
2023-04-09T04:57:08.708Z,100975.87
2023-04-09T05:00:13.094Z,100976.09
2023-04-09T05:03:19.480Z,100979.47
2023-04-09T05:06:27.985Z,100976.19
2023-04-09T05:09:30.862Z,100978.06
2023-04-09T05:12:34.562Z,100981.84
2023-04-09T05:15:41.820Z,100986.56
2023-04-09T05:18:45.817Z,100984.94
2023-04-09T05:21:48.414Z,100990.34
2023-04-09T05:24:54.548Z,100991.94
2023-04-09T05:27:57.496Z,100986.56
2023-04-09T05:31:01.001Z,100993.72
2023-04-09T05:34:03.791Z,100994.31
2023-04-09T05:37:07.655Z,100996.81
2023-04-09T05:40:11.550Z,100991.62
2023-04-09T05:43:14.891Z,100992.03
2023-04-09T05:46:18.425Z,101002.56
2023-04-09T05:49:22.264Z,101010.53
2023-04-09T05:52:25.682Z,101005.22
2023-04-09T05:55:31.056Z,101006.16
2023-04-09T05:58:34.011Z,101006.94
2023-04-09T06:01:37.435Z,101012.63
2023-04-09T06:04:40.383Z,101010.28
2023-04-09T06:07:43.621Z,101014.00
2023-04-09T06:10:46.386Z,101012.09
2023-04-09T06:13:49.284Z,101014.34
2023-04-09T06:16:52.138Z,101014.66
2023-04-09T06:19:54.949Z,101019.25
2023-04-09T06:22:57.894Z,101018.44
2023-04-09T06:26:01.477Z,101017.94
2023-04-09T06:29:04.889Z,101015.34
2023-04-09T06:32:08.270Z,101015.69
2023-04-09T06:35:11.290Z,101013.59
2023-04-09T06:38:14.162Z,101018.88
2023-04-09T06:41:17.139Z,101019.75
2023-04-09T06:44:21.488Z,101019.06
2023-04-09T06:47:24.685Z,101022.94
2023-04-09T06:50:27.858Z,101018.28
2023-04-09T06:53:30.708Z,101022.97
2023-04-09T06:56:34.677Z,101013.59
2023-04-09T06:59:37.473Z,101018.25
2023-04-09T07:02:40.635Z,101020.28
2023-04-09T07:05:43.792Z,101035.38
2023-04-09T07:08:47.246Z,101030.06
2023-04-09T07:11:50.045Z,101035.09
2023-04-09T07:14:52.830Z,101042.28
2023-04-09T07:17:57.663Z,101038.16
2023-04-09T07:21:01.011Z,101025.88
2023-04-09T07:24:04.012Z,101034.81
2023-04-09T07:27:06.847Z,101032.69
2023-04-09T07:30:10.868Z,101044.94
2023-04-09T07:33:13.820Z,101045.69
2023-04-09T07:36:16.680Z,101047.25
2023-04-09T07:39:21.086Z,101039.91
2023-04-09T07:42:24.094Z,101041.91
2023-04-09T07:45:27.028Z,101043.72
2023-04-09T07:48:30.062Z,101051.72
2023-04-09T07:51:32.899Z,101045.62
2023-04-09T07:54:35.812Z,101056.31
2023-04-09T07:57:38.878Z,101061.53
2023-04-09T08:00:41.711Z,101051.00
2023-04-09T08:03:45.553Z,101052.69
2023-04-09T08:06:51.232Z,101050.75
2023-04-09T08:09:54.319Z,101053.13
2023-04-09T08:12:56.871Z,101054.09
2023-04-09T08:16:03.906Z,101053.28
2023-04-09T08:19:07.164Z,101053.41
2023-04-09T08:22:10.526Z,101062.59
2023-04-09T08:25:13.069Z,101065.78
2023-04-09T08:28:16.370Z,101062.34
2023-04-09T08:31:19.029Z,101054.63
2023-04-09T08:34:22.204Z,101051.28
2023-04-09T08:37:24.883Z,101056.56
2023-04-09T08:40:27.885Z,101058.41
2023-04-09T08:43:47.200Z,101061.78
2023-04-09T08:46:57.133Z,101064.13
2023-04-09T08:50:00.919Z,101061.69
2023-04-09T08:53:05.862Z,101073.12
2023-04-09T08:56:08.392Z,101067.69
2023-04-09T08:59:11.606Z,101078.03
2023-04-09T09:02:14.461Z,101070.44
2023-04-09T09:05:17.626Z,101074.66
2023-04-09T09:08:24.862Z,101077.16
2023-04-09T09:11:28.375Z,101087.97
2023-04-09T09:14:33.279Z,101074.19
2023-04-09T09:17:54.638Z,101079.41
2023-04-09T09:21:13.575Z,101086.97
2023-04-09T09:24:17.727Z,101080.19
2023-04-09T09:27:34.317Z,101088.50
2023-04-09T09:30:39.210Z,101085.59
2023-04-09T09:33:42.408Z,101082.97
2023-04-09T09:36:46.510Z,101086.03
2023-04-09T09:39:49.059Z,101076.41
2023-04-09T09:42:57.074Z,101082.13
2023-04-09T09:46:00.525Z,101073.87
2023-04-09T09:49:04.308Z,101070.34
2023-04-09T09:52:11.468Z,101071.97
2023-04-09T09:55:16.830Z,101072.44
2023-04-09T09:58:32.142Z,101077.34
2023-04-09T10:01:36.755Z,101076.25
2023-04-09T10:04:40.612Z,101080.69
2023-04-09T10:07:44.958Z,101076.06
2023-04-09T10:10:48.601Z,101073.47
2023-04-09T10:13:57.990Z,101072.94
2023-04-09T10:17:01.106Z,101079.38
2023-04-09T10:20:16.018Z,101070.63
2023-04-09T10:23:31.583Z,101081.19
2023-04-09T10:26:41.104Z,101074.09
2023-04-09T10:29:48.882Z,101070.38
2023-04-09T10:32:53.357Z,101070.78
2023-04-09T10:36:03.273Z,101071.75
2023-04-09T10:39:13.751Z,101074.69
2023-04-09T10:42:40.318Z,101071.09
2023-04-09T10:45:43.155Z,101067.28
2023-04-09T10:48:46.129Z,101070.03
2023-04-09T10:51:54.827Z,101070.09
2023-04-09T10:54:57.729Z,101057.56
2023-04-09T10:58:00.691Z,101061.94
2023-04-09T11:01:03.546Z,101062.66
2023-04-09T11:04:17.281Z,101063.94
2023-04-09T11:07:23.968Z,101063.41
2023-04-09T11:10:26.917Z,101062.19
2023-04-09T11:13:31.682Z,101056.81
2023-04-09T11:16:34.794Z,101059.25
2023-04-09T11:19:37.689Z,101064.88
2023-04-09T11:22:40.774Z,101068.16
2023-04-09T11:25:49.422Z,101066.56
2023-04-09T11:28:57.238Z,101067.69
2023-04-09T11:32:00.344Z,101062.56
2023-04-09T11:35:03.661Z,101061.91
2023-04-09T11:38:08.830Z,101063.41
2023-04-09T11:41:13.547Z,101057.81
2023-04-09T11:44:16.558Z,101052.38
2023-04-09T11:47:19.811Z,101046.81
2023-04-09T11:50:22.902Z,101043.87
2023-04-09T11:53:31.187Z,101051.22
2023-04-09T11:56:35.887Z,101048.56
2023-04-09T11:59:39.706Z,101050.53
2023-04-09T12:02:44.435Z,101053.13
2023-04-09T12:05:51.002Z,101050.94
2023-04-09T12:08:56.201Z,101053.87
2023-04-09T12:11:59.466Z,101052.53
2023-04-09T12:15:10.485Z,101044.50
2023-04-09T12:18:14.110Z,101045.38
2023-04-09T12:21:19.119Z,101040.87
2023-04-09T12:24:26.513Z,101039.69
2023-04-09T12:27:29.097Z,101033.47
2023-04-09T12:30:32.538Z,101037.44
2023-04-09T12:33:38.043Z,101033.56
2023-04-09T12:36:41.741Z,101022.97
2023-04-09T12:39:44.503Z,101012.81
2023-04-09T12:42:47.947Z,101021.22
2023-04-09T12:45:50.450Z,101012.63
2023-04-09T12:48:53.913Z,101012.12
2023-04-09T12:51:56.465Z,100998.12
2023-04-09T12:54:59.465Z,101002.06
2023-04-09T12:58:03.108Z,101005.25
2023-04-09T13:01:06.786Z,101010.56
2023-04-09T13:04:09.634Z,101003.63
2023-04-09T13:07:15.622Z,100999.37
2023-04-09T13:10:18.338Z,100992.63
2023-04-09T13:13:21.559Z,100991.38
2023-04-09T13:16:24.128Z,100990.38
2023-04-09T13:19:28.225Z,100988.25
2023-04-09T13:22:31.042Z,100989.09
2023-04-09T13:25:34.248Z,100984.75
2023-04-09T13:28:37.122Z,100988.53
2023-04-09T13:31:40.281Z,100984.72
2023-04-09T13:34:42.930Z,100983.50
2023-04-09T13:37:46.285Z,100982.25
2023-04-09T13:40:48.943Z,100988.38
2023-04-09T13:43:52.095Z,100976.06
2023-04-09T13:46:54.819Z,100974.44
2023-04-09T13:49:57.929Z,100974.41
2023-04-09T13:53:03.064Z,100984.88
2023-04-09T13:56:06.697Z,100984.97
2023-04-09T13:59:09.163Z,100981.78
2023-04-09T14:02:12.397Z,100975.50
2023-04-09T14:05:15.461Z,100976.22
2023-04-09T14:08:18.476Z,100975.87
2023-04-09T14:11:21.286Z,100968.47
2023-04-09T14:14:24.167Z,100969.22
2023-04-09T14:17:27.156Z,100968.66
2023-04-09T14:20:29.958Z,100960.69
2023-04-09T14:23:32.873Z,100968.78
2023-04-09T14:26:35.734Z,100950.00
2023-04-09T14:29:38.543Z,100965.78
2023-04-09T14:32:41.373Z,100955.28
2023-04-09T14:35:44.301Z,100956.16
2023-04-09T14:38:48.673Z,100958.25
2023-04-09T14:41:51.857Z,100958.91
2023-04-09T14:44:54.663Z,100949.88
2023-04-09T14:47:57.643Z,100951.31
2023-04-09T14:51:00.533Z,100947.97
2023-04-09T14:54:03.454Z,100947.38
2023-04-09T14:57:07.013Z,100945.59
2023-04-09T15:00:12.151Z,100951.53
2023-04-09T15:03:15.251Z,100945.78
2023-04-09T15:06:18.296Z,100941.91
2023-04-09T15:09:21.175Z,100944.78
2023-04-09T15:12:23.964Z,100945.87
2023-04-09T15:15:26.946Z,100930.66
2023-04-09T15:18:29.768Z,100934.03
2023-04-09T15:21:32.664Z,100943.47
2023-04-09T15:24:35.687Z,100937.56
2023-04-09T15:27:38.666Z,100939.56
2023-04-09T15:30:41.911Z,100941.53
2023-04-09T15:33:45.507Z,100941.72
2023-04-09T15:36:48.363Z,100936.72
2023-04-09T15:39:51.633Z,100938.37
2023-04-09T15:42:55.140Z,100936.41
2023-04-09T15:45:57.997Z,100937.69
2023-04-09T15:49:01.402Z,100942.16
2023-04-09T15:52:04.392Z,100938.84
2023-04-09T15:55:07.801Z,100949.78
2023-04-09T15:58:10.717Z,100951.78
2023-04-09T16:01:15.140Z,100943.38
2023-04-09T16:04:18.424Z,100932.88
2023-04-09T16:07:20.948Z,100937.66
2023-04-09T16:10:24.074Z,100939.44
2023-04-09T16:13:27.144Z,100938.87
2023-04-09T16:16:30.317Z,100945.22
2023-04-09T16:19:32.942Z,100942.75
2023-04-09T16:22:36.206Z,100948.25
2023-04-09T16:25:39.010Z,100949.34
2023-04-09T16:28:42.161Z,100951.91
2023-04-09T16:31:44.828Z,100950.19
2023-04-09T16:34:47.888Z,100949.09
2023-04-09T16:37:51.899Z,100948.94
2023-04-09T16:40:56.066Z,100947.09
2023-04-09T16:43:58.734Z,100947.09
2023-04-09T16:47:02.759Z,100946.53
2023-04-09T16:50:10.481Z,100950.03
2023-04-09T16:53:13.718Z,100955.31
2023-04-09T16:56:16.740Z,100951.63
2023-04-09T16:59:21.100Z,100952.56
2023-04-09T17:02:24.684Z,100963.41
2023-04-09T17:05:27.980Z,100952.66
2023-04-09T17:08:30.770Z,100949.59
2023-04-09T17:11:34.022Z,100951.47
2023-04-09T17:14:38.785Z,100950.69
2023-04-09T17:17:43.644Z,100952.06
2023-04-09T17:20:46.688Z,100954.31
2023-04-09T17:23:49.845Z,100961.16
2023-04-09T17:26:52.337Z,100957.34
2023-04-09T17:29:55.521Z,100957.81
2023-04-09T17:32:58.102Z,100964.22
2023-04-09T17:36:01.544Z,100959.78
2023-04-09T17:39:04.040Z,100957.09
2023-04-09T17:42:07.806Z,100967.38
2023-04-09T17:45:10.951Z,100962.87
2023-04-09T17:48:14.093Z,100967.44
2023-04-09T17:51:19.518Z,100977.13
2023-04-09T17:54:22.720Z,100972.44
2023-04-09T17:57:25.316Z,100973.81
2023-04-09T18:00:28.503Z,100983.13
2023-04-09T18:03:31.772Z,100988.94
2023-04-09T18:06:34.778Z,100981.94
2023-04-09T18:09:39.244Z,100991.88
2023-04-09T18:12:42.215Z,100996.66
2023-04-09T18:15:45.101Z,100998.22
2023-04-09T18:18:48.022Z,100992.78
2023-04-09T18:21:51.050Z,100988.28
2023-04-09T18:24:54.268Z,101003.53
2023-04-09T18:27:59.290Z,100999.06
2023-04-09T18:31:02.148Z,101006.41
2023-04-09T18:34:05.089Z,101011.13
2023-04-09T18:37:08.259Z,101001.62
2023-04-09T18:40:20.164Z,101014.31
2023-04-09T18:43:23.289Z,101009.63
2023-04-09T18:46:26.654Z,101011.22
2023-04-09T18:49:29.630Z,101016.13
2023-04-09T18:52:32.524Z,101018.22
2023-04-09T18:55:38.468Z,101015.53
2023-04-09T18:58:41.569Z,101016.44
2023-04-09T19:01:44.521Z,101025.16
2023-04-09T19:04:47.877Z,101017.81
2023-04-09T19:07:50.702Z,101024.66
2023-04-09T19:10:55.562Z,101022.72
2023-04-09T19:13:58.449Z,101025.53
2023-04-09T19:17:02.404Z,101025.28
2023-04-09T19:20:05.759Z,101026.16
2023-04-09T19:23:09.958Z,101032.81
2023-04-09T19:26:12.869Z,101030.06
2023-04-09T19:29:15.668Z,101025.69
2023-04-09T19:32:18.548Z,101029.97
2023-04-09T19:35:22.015Z,101027.22
2023-04-09T19:38:25.098Z,101031.19
2023-04-09T19:41:28.076Z,101030.84
2023-04-09T19:44:30.984Z,101029.50
2023-04-09T19:47:34.807Z,101031.66
2023-04-09T19:50:40.571Z,101027.03
2023-04-09T19:53:46.101Z,101027.66
2023-04-09T19:56:50.152Z,101022.44
2023-04-09T19:59:54.124Z,101029.19
2023-04-09T20:02:57.611Z,101024.69
2023-04-09T20:06:00.971Z,101029.53
2023-04-09T20:09:03.881Z,101026.56
2023-04-09T20:12:08.824Z,101028.09
2023-04-09T20:15:11.912Z,101034.03
2023-04-09T20:18:14.762Z,101027.22
2023-04-09T20:21:17.666Z,101032.88
2023-04-09T20:24:22.375Z,101035.09
2023-04-09T20:27:25.466Z,101039.94
2023-04-09T20:30:28.286Z,101037.00
2023-04-09T20:33:32.183Z,101037.50
2023-04-09T20:36:37.556Z,101039.03
2023-04-09T20:39:40.710Z,101037.97
2023-04-09T20:42:43.867Z,101035.88
2023-04-09T20:45:46.996Z,101042.59
2023-04-09T20:48:49.821Z,101036.31
2023-04-09T20:51:52.600Z,101032.66
2023-04-09T20:54:57.088Z,101037.56
2023-04-09T20:58:00.242Z,101032.19
2023-04-09T21:01:09.210Z,101037.13
2023-04-09T21:04:12.909Z,101033.59
2023-04-09T21:07:16.242Z,101045.59
2023-04-09T21:10:19.081Z,101040.31
2023-04-09T21:13:23.379Z,101038.44
2023-04-09T21:16:28.477Z,101038.34
2023-04-09T21:19:31.558Z,101038.44
2023-04-09T21:22:34.901Z,101036.53
2023-04-09T21:25:37.742Z,101035.56
2023-04-09T21:28:40.653Z,101031.97
2023-04-09T21:31:43.481Z,101039.78
2023-04-09T21:34:46.326Z,101034.47
2023-04-09T21:37:49.148Z,101034.28
2023-04-09T21:40:51.931Z,101037.56
2023-04-09T21:43:54.725Z,101033.13
2023-04-09T21:46:57.599Z,101035.53
2023-04-09T21:50:00.567Z,101037.03
2023-04-09T21:53:03.500Z,101035.94
2023-04-09T21:56:06.758Z,101030.84
2023-04-09T21:59:09.788Z,101033.34
2023-04-09T22:02:12.823Z,101039.44
2023-04-09T22:05:16.370Z,101038.34
2023-04-09T22:08:18.984Z,101037.16
2023-04-09T22:11:25.852Z,101045.66
2023-04-09T22:14:29.745Z,101043.87
2023-04-09T22:17:33.063Z,101040.34
2023-04-09T22:20:36.260Z,101044.56
2023-04-09T22:23:39.409Z,101042.75
2023-04-09T22:26:46.516Z,101047.78
2023-04-09T22:29:49.920Z,101045.88
2023-04-09T22:32:52.674Z,101045.78
2023-04-09T22:35:56.145Z,101048.25
2023-04-09T22:38:58.721Z,101042.28
2023-04-09T22:42:01.933Z,101046.75
2023-04-09T22:45:04.720Z,101052.44
2023-04-09T22:48:08.256Z,101044.84
2023-04-09T22:51:11.390Z,101043.87
2023-04-09T22:54:14.360Z,101041.97
2023-04-09T22:57:16.879Z,101046.06
2023-04-09T23:00:20.074Z,101045.25
2023-04-09T23:03:22.857Z,101044.88
2023-04-09T23:06:26.238Z,101047.88
2023-04-09T23:09:30.279Z,101051.69
2023-04-09T23:12:33.440Z,101045.38
2023-04-09T23:15:36.034Z,101043.41
2023-04-09T23:18:39.230Z,101043.50
2023-04-09T23:21:41.856Z,101045.22
2023-04-09T23:24:45.754Z,101044.28
2023-04-09T23:27:48.411Z,101041.13
2023-04-09T23:30:51.501Z,101039.41
2023-04-09T23:33:54.178Z,101042.41
2023-04-09T23:36:57.365Z,101033.22
2023-04-09T23:39:59.734Z,101035.53
2023-04-09T23:43:02.800Z,101039.53
2023-04-09T23:46:05.520Z,101033.16
2023-04-09T23:49:08.732Z,101031.75
2023-04-09T23:52:11.557Z,101031.53
2023-04-09T23:55:15.461Z,101029.25
2023-04-09T23:58:18.871Z,101030.56
